Terminal Aerodrome Forecast
Issued by NWS

Home | Current Version | Previous Version | Text Only | Print | Product List | Glossary On
Versions: 1 2 3 4 5 6 7 8 9 10 11 12 13
000
FTUS41 KLWX 041144
TAFMTN
TAF
KMTN 041144Z 0412/0512 VRB04KT P6SM FEW100
     FM041400 19006KT P6SM FEW090
     FM041800 17010KT P6SM SCT060
     FM050300 VRB05KT P6SM FEW050=

USA.gov is the U.S. government's official web portal to all federal, state and local government web resources and services.